Time;durP1;ratioP1;P1;durP2;ratioP2;P2;SDS_P1;SDS_P2;PMS_P1;PMS_P2;Temp;Humidity;BMP_temperature;BMP_pressure;BME280_temperature;BME280_humidity;BME280_pressure;Samples;Min_cycle;Max_cycle;Signal;HPM_P1;HPM_P2
2021/05/25 00:02:04;;;;;;;1.88;0.90;;;;;;;;;;4990075;28;20101;-62
2021/05/25 00:04:30;;;;;;;3.45;1.48;;;;;;;;;;4990061;28;20030;-63
2021/05/25 00:06:56;;;;;;;3.83;1.20;;;;;;;;;;4990033;28;20123;-64
2021/05/25 00:09:22;;;;;;;4.97;1.17;;;;;;;;;;4990108;28;20067;-64
2021/05/25 00:11:48;;;;;;;2.95;1.10;;;;;;;;;;4989883;28;20022;-62
2021/05/25 00:14:19;;;;;;;3.00;1.20;;;;;;;;;;5020992;28;20395;-62
2021/05/25 00:16:45;;;;;;;3.33;1.10;;;;;;;;;;4989811;28;20027;-62
2021/05/25 00:19:11;;;;;;;3.97;1.00;;;;;;;;;;4989470;28;20018;-65
2021/05/25 00:21:37;;;;;;;2.53;0.93;;;;;;;;;;4990018;28;20433;-63
2021/05/25 00:24:03;;;;;;;2.80;1.20;;;;;;;;;;5006965;28;20482;-61
2021/05/25 00:26:29;;;;;;;4.25;1.20;;;;;;;;;;5009323;28;20524;-62
2021/05/25 00:28:55;;;;;;;2.35;0.93;;;;;;;;;;5009131;28;20032;-62
2021/05/25 00:31:21;;;;;;;3.08;1.08;;;;;;;;;;5009098;28;20034;-61
2021/05/25 00:33:47;;;;;;;2.08;0.93;;;;;;;;;;5009132;28;20097;-61
2021/05/25 00:36:14;;;;;;;2.63;1.00;;;;;;;;;;5009141;28;20499;-62
2021/05/25 00:38:40;;;;;;;2.05;0.93;;;;;;;;;;5009113;28;20070;-61
2021/05/25 00:41:06;;;;;;;3.92;1.00;;;;;;;;;;5009026;28;20045;-61
2021/05/25 00:43:32;;;;;;;2.80;1.25;;;;;;;;;;5041063;28;20041;-61
2021/05/25 00:45:58;;;;;;;5.50;1.20;;;;;;;;;;5008938;28;20037;-61
2021/05/25 00:48:24;;;;;;;3.42;1.20;;;;;;;;;;5008885;28;20029;-61
2021/05/25 00:50:50;;;;;;;4.57;1.30;;;;;;;;;;5008822;28;20108;-61
2021/05/25 00:53:16;;;;;;;5.78;1.40;;;;;;;;;;5008807;28;20029;-61
2021/05/25 00:55:42;;;;;;;4.20;1.30;;;;;;;;;;5008732;28;20018;-62
2021/05/25 00:58:10;;;;;;;2.50;1.20;;;;;;;;;;5008712;28;20053;-62
2021/05/25 01:00:40;;;;;;;4.57;1.00;;;;;;;;;;5008875;28;20026;-60
2021/05/25 01:03:07;;;;;;;4.55;1.08;;;;;;;;;;5008910;28;20026;-64
2021/05/25 01:05:34;;;;;;;2.40;0.90;;;;;;;;;;5040484;28;20034;-65
2021/05/25 01:08:00;;;;;;;2.55;1.10;;;;;;;;;;5003710;28;20026;-62
2021/05/25 01:10:33;;;;;;;8.40;0.98;;;;;;;;;;4989233;28;20027;-63
2021/05/25 01:13:22;;;;;;;10.60;1.25;;;;;;;;;;4987882;28;20038;-64
2021/05/25 01:15:46;;;;;;;5.72;1.85;;;;;;;;;;4989456;28;20034;-63
2021/05/25 01:18:12;;;;;;;3.63;1.17;;;;;;;;;;4988971;28;20022;-63
2021/05/25 01:20:39;;;;;;;7.75;1.52;;;;;;;;;;4989146;28;20019;-62
2021/05/25 01:23:07;;;;;;;6.65;1.20;;;;;;;;;;4989000;28;20049;-64
2021/05/25 01:25:33;;;;;;;3.15;1.10;;;;;;;;;;4988920;28;20089;-63
2021/05/25 01:28:01;;;;;;;6.07;1.15;;;;;;;;;;4992580;28;20018;-63
2021/05/25 01:30:28;;;;;;;5.43;1.20;;;;;;;;;;4992580;28;20022;-62
2021/05/25 01:32:54;;;;;;;3.83;1.30;;;;;;;;;;4992427;28;20022;-62
2021/05/25 01:35:21;;;;;;;6.95;1.48;;;;;;;;;;4991117;28;20110;-62
2021/05/25 01:37:48;;;;;;;5.32;1.23;;;;;;;;;;4992247;28;20022;-62
2021/05/25 01:40:14;;;;;;;5.07;1.15;;;;;;;;;;4992269;28;20030;-62
2021/05/25 01:42:40;;;;;;;3.58;1.00;;;;;;;;;;4992400;28;20040;-63
2021/05/25 01:45:07;;;;;;;3.08;1.10;;;;;;;;;;4992109;28;20038;-63
2021/05/25 01:47:33;;;;;;;4.18;1.20;;;;;;;;;;4991943;28;20026;-62
2021/05/25 01:50:12;;;;;;;3.13;1.05;;;;;;;;;;4992170;28;20026;-63
2021/05/25 01:52:52;;;;;;;2.63;0.95;;;;;;;;;;4990997;28;20026;-63
2021/05/25 01:55:27;;;;;;;3.22;1.17;;;;;;;;;;4992203;28;20026;-62
2021/05/25 01:57:54;;;;;;;5.00;1.10;;;;;;;;;;4992099;28;20053;-61
2021/05/25 02:00:20;;;;;;;2.47;0.95;;;;;;;;;;4991029;28;20025;-62
2021/05/25 02:02:46;;;;;;;2.42;1.00;;;;;;;;;;4991715;28;20156;-62
2021/05/25 02:05:13;;;;;;;3.58;1.02;;;;;;;;;;4991896;28;20027;-62
2021/05/25 02:07:39;;;;;;;6.00;1.13;;;;;;;;;;4998108;28;20033;-63
2021/05/25 02:10:06;;;;;;;2.60;1.15;;;;;;;;;;5037979;28;20026;-63
2021/05/25 02:12:33;;;;;;;4.43;1.20;;;;;;;;;;5011561;28;20500;-63
2021/05/25 02:14:59;;;;;;;3.75;1.20;;;;;;;;;;5011524;28;20030;-62
2021/05/25 02:17:26;;;;;;;3.75;0.95;;;;;;;;;;5011469;28;20104;-62
2021/05/25 02:19:52;;;;;;;5.93;1.00;;;;;;;;;;5009404;28;20026;-62
2021/05/25 02:22:18;;;;;;;3.65;1.00;;;;;;;;;;4991562;28;20080;-62
2021/05/25 02:24:44;;;;;;;2.55;0.95;;;;;;;;;;4991654;28;20379;-62
2021/05/25 02:27:11;;;;;;;3.42;1.25;;;;;;;;;;5010443;28;20037;-62
2021/05/25 02:29:37;;;;;;;3.55;1.05;;;;;;;;;;5043031;28;20052;-63
2021/05/25 02:32:03;;;;;;;4.82;1.10;;;;;;;;;;5042835;28;20029;-62
2021/05/25 02:34:29;;;;;;;4.55;1.20;;;;;;;;;;5011343;28;20026;-62
2021/05/25 02:36:55;;;;;;;3.08;1.02;;;;;;;;;;5010848;28;20026;-62
2021/05/25 02:39:21;;;;;;;3.25;1.27;;;;;;;;;;4992012;28;20050;-61
2021/05/25 02:41:47;;;;;;;2.92;1.30;;;;;;;;;;4991426;28;20542;-62
2021/05/25 02:44:13;;;;;;;4.13;1.25;;;;;;;;;;4991436;28;20060;-62
2021/05/25 02:46:39;;;;;;;2.47;1.00;;;;;;;;;;4991316;28;20518;-62
2021/05/25 02:49:05;;;;;;;5.30;1.10;;;;;;;;;;4991285;28;20031;-64
2021/05/25 02:51:31;;;;;;;2.55;1.10;;;;;;;;;;4991169;28;20457;-63
2021/05/25 02:53:57;;;;;;;4.13;0.90;;;;;;;;;;4991240;28;20383;-62
2021/05/25 02:56:23;;;;;;;2.85;1.10;;;;;;;;;;4991331;28;20075;-62
2021/05/25 02:58:51;;;;;;;3.92;1.20;;;;;;;;;;4991126;28;20173;-62
2021/05/25 03:01:17;;;;;;;3.22;0.80;;;;;;;;;;4991206;28;20467;-61
2021/05/25 03:03:43;;;;;;;3.28;1.00;;;;;;;;;;5010009;28;20026;-62
2021/05/25 03:06:09;;;;;;;2.40;1.00;;;;;;;;;;5010595;28;20033;-62
2021/05/25 03:08:35;;;;;;;2.92;1.00;;;;;;;;;;5010531;28;20048;-62
2021/05/25 03:11:02;;;;;;;3.30;1.02;;;;;;;;;;5010688;28;20025;-63
2021/05/25 03:13:28;;;;;;;2.05;0.93;;;;;;;;;;5010646;28;20467;-62
2021/05/25 03:15:54;;;;;;;4.25;1.00;;;;;;;;;;5042039;28;20447;-63
2021/05/25 03:18:20;;;;;;;1.92;0.98;;;;;;;;;;5010469;28;20018;-63
2021/05/25 03:20:48;;;;;;;3.10;1.02;;;;;;;;;;5010304;28;20030;-62
2021/05/25 03:23:14;;;;;;;4.22;1.10;;;;;;;;;;5010261;28;20065;-62
2021/05/25 03:25:42;;;;;;;3.33;0.95;;;;;;;;;;5010322;28;20034;-62
2021/05/25 03:28:08;;;;;;;3.10;1.00;;;;;;;;;;5010322;28;20041;-61
2021/05/25 03:30:35;;;;;;;2.97;0.93;;;;;;;;;;5010248;28;20054;-62
2021/05/25 03:33:01;;;;;;;3.33;1.20;;;;;;;;;;5010007;28;20008;-61
2021/05/25 03:35:28;;;;;;;2.47;1.05;;;;;;;;;;5041901;28;20022;-62
2021/05/25 03:37:54;;;;;;;5.38;1.27;;;;;;;;;;5009960;28;20030;-62
2021/05/25 03:40:20;;;;;;;2.63;0.80;;;;;;;;;;5010264;28;20030;-63
2021/05/25 03:42:47;;;;;;;4.22;1.65;;;;;;;;;;5010297;28;20089;-62
2021/05/25 03:45:14;;;;;;;2.10;1.00;;;;;;;;;;5010027;28;20030;-62
2021/05/25 03:47:40;;;;;;;2.38;0.95;;;;;;;;;;5009857;28;20075;-61
2021/05/25 03:50:09;;;;;;;4.70;1.30;;;;;;;;;;5009246;28;20569;-61
2021/05/25 03:52:36;;;;;;;3.15;1.20;;;;;;;;;;5010063;28;20078;-62
2021/05/25 03:55:05;;;;;;;4.75;1.13;;;;;;;;;;4999718;28;20034;-62
2021/05/25 03:59:57;;;;;;;7.07;1.08;;;;;;;;;;5009929;28;20030;-61
2021/05/25 04:02:23;;;;;;;4.15;1.10;;;;;;;;;;5001836;28;20067;-59
2021/05/25 04:04:49;;;;;;;4.70;1.13;;;;;;;;;;4990403;28;20080;-60
2021/05/25 04:07:15;;;;;;;4.57;1.17;;;;;;;;;;4989087;28;20041;-59
2021/05/25 04:09:42;;;;;;;4.07;1.10;;;;;;;;;;4990407;28;20018;-59
2021/05/25 04:12:08;;;;;;;3.42;1.02;;;;;;;;;;4989292;28;20026;-59
2021/05/25 04:14:34;;;;;;;3.53;1.00;;;;;;;;;;4990326;28;20393;-60
2021/05/25 04:17:01;;;;;;;3.95;1.17;;;;;;;;;;4990176;28;20054;-59
2021/05/25 04:19:27;;;;;;;5.10;0.90;;;;;;;;;;4990386;28;20024;-59
2021/05/25 04:21:53;;;;;;;6.25;1.15;;;;;;;;;;4990312;28;20652;-59
2021/05/25 04:24:19;;;;;;;2.58;1.02;;;;;;;;;;4990267;28;20666;-59
2021/05/25 04:26:45;;;;;;;2.28;0.98;;;;;;;;;;4990190;28;20530;-58
2021/05/25 04:29:11;;;;;;;2.13;1.00;;;;;;;;;;4990110;28;20487;-59
2021/05/25 04:31:37;;;;;;;3.83;0.93;;;;;;;;;;4990154;28;20506;-59
2021/05/25 04:34:04;;;;;;;5.80;1.00;;;;;;;;;;4990080;28;20022;-59
2021/05/25 04:36:30;;;;;;;5.78;1.00;;;;;;;;;;4990299;28;20054;-59
2021/05/25 04:38:56;;;;;;;2.28;1.20;;;;;;;;;;4990055;28;20050;-59
2021/05/25 04:41:22;;;;;;;2.38;1.00;;;;;;;;;;4990423;28;20079;-59
2021/05/25 04:43:48;;;;;;;3.13;1.00;;;;;;;;;;4989983;28;20471;-59
2021/05/25 04:46:14;;;;;;;2.80;1.00;;;;;;;;;;4990163;28;20034;-59
2021/05/25 04:48:40;;;;;;;2.05;1.00;;;;;;;;;;4990052;28;20083;-59
2021/05/25 04:51:06;;;;;;;4.38;1.52;;;;;;;;;;4990046;28;20030;-59
2021/05/25 04:53:32;;;;;;;2.20;0.95;;;;;;;;;;4989939;28;20022;-60
2021/05/25 04:55:59;;;;;;;5.45;1.35;;;;;;;;;;4988553;28;20117;-59
2021/05/25 04:58:25;;;;;;;3.28;1.25;;;;;;;;;;4989812;28;20045;-59
2021/05/25 05:00:51;;;;;;;2.55;1.27;;;;;;;;;;4989660;28;20034;-59
2021/05/25 05:03:17;;;;;;;3.10;1.02;;;;;;;;;;4989749;28;20030;-59
2021/05/25 05:05:43;;;;;;;2.88;1.10;;;;;;;;;;4989870;28;20027;-59
2021/05/25 05:08:09;;;;;;;3.33;1.00;;;;;;;;;;4989942;28;20022;-59
2021/05/25 05:10:36;;;;;;;2.63;1.17;;;;;;;;;;4989819;28;20090;-59
2021/05/25 05:13:08;;;;;;;1.73;0.82;;;;;;;;;;4989708;28;20475;-59
2021/05/25 05:15:34;;;;;;;1.85;0.90;;;;;;;;;;4989628;28;20038;-59
2021/05/25 05:18:00;;;;;;;2.63;1.05;;;;;;;;;;4989665;28;20026;-59
2021/05/25 05:20:27;;;;;;;3.13;0.93;;;;;;;;;;4989349;28;20101;-59
2021/05/25 05:22:53;;;;;;;3.03;1.10;;;;;;;;;;4989448;28;20040;-59
2021/05/25 05:25:19;;;;;;;3.13;1.10;;;;;;;;;;4989480;28;20030;-59
2021/05/25 05:27:45;;;;;;;1.60;0.80;;;;;;;;;;4989634;28;20026;-59
2021/05/25 05:30:13;;;;;;;2.17;1.02;;;;;;;;;;4989453;28;20030;-59
2021/05/25 05:32:40;;;;;;;2.97;1.00;;;;;;;;;;5020977;28;20045;-59
2021/05/25 05:35:07;;;;;;;1.52;0.85;;;;;;;;;;4989241;28;20026;-59
2021/05/25 05:37:33;;;;;;;4.63;1.25;;;;;;;;;;4989088;28;20484;-60
2021/05/25 05:40:00;;;;;;;4.20;0.90;;;;;;;;;;4989326;28;20099;-59
2021/05/25 05:42:26;;;;;;;1.90;0.90;;;;;;;;;;4989192;28;20023;-59
2021/05/25 05:44:52;;;;;;;3.50;1.10;;;;;;;;;;4989066;28;20483;-59
2021/05/25 05:47:18;;;;;;;2.58;0.90;;;;;;;;;;4996163;28;20038;-60
2021/05/25 05:49:44;;;;;;;1.92;1.00;;;;;;;;;;5040609;28;20101;-62
2021/05/25 05:52:10;;;;;;;1.25;0.70;;;;;;;;;;4988551;28;20029;-62
2021/05/25 05:54:36;;;;;;;2.58;1.13;;;;;;;;;;4988352;28;20019;-58
2021/05/25 05:57:02;;;;;;;2.72;1.10;;;;;;;;;;4988448;28;20030;-58
2021/05/25 05:59:28;;;;;;;3.17;1.15;;;;;;;;;;4988408;28;20026;-58
2021/05/25 06:01:54;;;;;;;2.58;0.95;;;;;;;;;;4988587;28;20018;-59
2021/05/25 06:04:20;;;;;;;3.72;1.05;;;;;;;;;;4988521;28;20026;-59
2021/05/25 06:06:46;;;;;;;2.50;1.20;;;;;;;;;;4988117;28;20038;-59
2021/05/25 06:09:12;;;;;;;3.85;1.10;;;;;;;;;;4986953;28;20467;-58
2021/05/25 06:11:39;;;;;;;2.53;1.02;;;;;;;;;;4988134;28;20489;-58
2021/05/25 06:14:05;;;;;;;2.03;0.93;;;;;;;;;;4991612;28;20451;-59
2021/05/25 06:16:32;;;;;;;3.28;0.88;;;;;;;;;;4991667;28;20386;-58
2021/05/25 06:18:58;;;;;;;2.88;1.20;;;;;;;;;;4991680;28;20164;-57
2021/05/25 06:21:24;;;;;;;3.03;1.10;;;;;;;;;;4991962;28;20027;-59
2021/05/25 06:23:50;;;;;;;4.00;1.50;;;;;;;;;;4991703;28;20045;-58
2021/05/25 06:26:19;;;;;;;1.98;0.80;;;;;;;;;;4991665;28;20031;-58
2021/05/25 06:28:46;;;;;;;2.38;1.08;;;;;;;;;;4991692;28;20467;-57
2021/05/25 06:31:12;;;;;;;5.68;1.10;;;;;;;;;;4991365;28;20031;-58
2021/05/25 06:33:38;;;;;;;2.60;1.00;;;;;;;;;;4991348;28;20034;-61
2021/05/25 06:36:04;;;;;;;4.05;1.10;;;;;;;;;;4991166;28;20035;-58
2021/05/25 06:38:30;;;;;;;2.85;0.80;;;;;;;;;;4991142;28;20647;-59
2021/05/25 06:40:56;;;;;;;1.52;0.77;;;;;;;;;;4991302;28;20030;-59
2021/05/25 06:43:22;;;;;;;3.00;0.93;;;;;;;;;;4991198;28;20061;-58
2021/05/25 06:45:48;;;;;;;2.83;1.20;;;;;;;;;;4991152;28;20060;-58
2021/05/25 06:48:14;;;;;;;2.72;0.93;;;;;;;;;;4990923;28;20022;-58
2021/05/25 06:50:40;;;;;;;3.83;1.00;;;;;;;;;;4991159;28;20035;-58
2021/05/25 06:53:06;;;;;;;16.13;1.58;;;;;;;;;;4991393;28;20021;-58
2021/05/25 06:55:34;;;;;;;1.70;0.88;;;;;;;;;;4991063;28;20024;-58
2021/05/25 06:58:01;;;;;;;3.08;0.98;;;;;;;;;;4991268;28;20060;-58
2021/05/25 07:00:27;;;;;;;3.05;1.35;;;;;;;;;;4991052;28;20023;-59
2021/05/25 07:02:53;;;;;;;2.90;1.33;;;;;;;;;;4991004;28;20459;-58
2021/05/25 07:05:19;;;;;;;3.47;1.42;;;;;;;;;;4991048;28;20034;-59
2021/05/25 07:07:45;;;;;;;4.30;1.20;;;;;;;;;;4990816;28;20026;-59
2021/05/25 07:10:11;;;;;;;2.22;1.00;;;;;;;;;;4990959;28;20057;-56
2021/05/25 07:12:37;;;;;;;3.42;0.85;;;;;;;;;;4990677;28;20494;-59
2021/05/25 07:15:05;;;;;;;3.30;0.90;;;;;;;;;;4990703;28;20033;-58
2021/05/25 07:17:31;;;;;;;2.95;1.23;;;;;;;;;;4990878;28;20018;-59
2021/05/25 07:19:57;;;;;;;2.58;0.93;;;;;;;;;;4990765;28;20534;-58
2021/05/25 07:22:23;;;;;;;2.13;0.90;;;;;;;;;;4990696;28;20375;-58
2021/05/25 07:24:50;;;;;;;13.02;2.03;;;;;;;;;;5009241;28;20271;-59
2021/05/25 07:27:16;;;;;;;5.15;1.13;;;;;;;;;;5014110;28;20470;-63
2021/05/25 07:29:42;;;;;;;5.22;1.20;;;;;;;;;;5009211;28;20382;-61
2021/05/25 07:32:08;;;;;;;3.10;1.05;;;;;;;;;;5010446;28;20028;-62
2021/05/25 07:34:34;;;;;;;7.32;1.10;;;;;;;;;;5010429;28;20021;-62
2021/05/25 07:37:00;;;;;;;4.38;1.10;;;;;;;;;;5010446;28;20120;-61
2021/05/25 07:39:27;;;;;;;3.22;1.20;;;;;;;;;;5010350;28;20517;-61
2021/05/25 07:41:53;;;;;;;2.53;1.23;;;;;;;;;;5002564;28;20076;-62
2021/05/25 07:44:20;;;;;;;4.07;1.10;;;;;;;;;;4990300;28;20479;-62
2021/05/25 07:46:46;;;;;;;3.55;1.10;;;;;;;;;;4988903;28;20126;-61
2021/05/25 07:49:12;;;;;;;3.65;1.10;;;;;;;;;;4989923;28;20030;-61
2021/05/25 07:51:38;;;;;;;1.85;1.13;;;;;;;;;;4990337;28;20026;-61
2021/05/25 07:54:04;;;;;;;2.97;1.17;;;;;;;;;;4990450;28;20084;-61
2021/05/25 07:56:30;;;;;;;1.95;1.17;;;;;;;;;;4990070;28;20022;-62
2021/05/25 07:58:56;;;;;;;3.88;1.08;;;;;;;;;;4990335;28;20508;-61
2021/05/25 08:01:22;;;;;;;4.22;1.00;;;;;;;;;;4990137;28;20564;-61
2021/05/25 08:03:48;;;;;;;4.10;1.38;;;;;;;;;;4990226;28;20664;-61
2021/05/25 08:06:15;;;;;;;2.78;1.08;;;;;;;;;;4989987;28;20483;-61
2021/05/25 08:08:41;;;;;;;3.97;1.20;;;;;;;;;;4990120;28;20018;-62
2021/05/25 08:11:12;;;;;;;3.35;1.17;;;;;;;;;;4989705;28;20034;-62
2021/05/25 08:13:38;;;;;;;2.45;1.08;;;;;;;;;;4989590;28;20037;-62
2021/05/25 08:16:04;;;;;;;2.85;1.23;;;;;;;;;;4989580;28;20037;-61
2021/05/25 08:21:15;;;;;;;3.83;1.00;;;;;;;;;;5009340;28;20041;-61
2021/05/25 08:23:42;;;;;;;2.88;1.30;;;;;;;;;;5009152;28;20014;-62
2021/05/25 08:26:09;;;;;;;2.58;1.20;;;;;;;;;;5009161;28;20026;-61
2021/05/25 08:28:35;;;;;;;2.25;1.10;;;;;;;;;;5009349;28;20022;-61
2021/05/25 08:31:01;;;;;;;3.58;1.52;;;;;;;;;;5007914;28;20061;-61
2021/05/25 08:33:27;;;;;;;2.92;1.35;;;;;;;;;;5009105;28;20033;-63
2021/05/25 08:35:54;;;;;;;2.38;1.20;;;;;;;;;;5008858;28;20030;-61
2021/05/25 08:38:22;;;;;;;5.00;1.30;;;;;;;;;;5008977;28;20426;-62
2021/05/25 08:40:49;;;;;;;2.78;1.38;;;;;;;;;;5009319;28;20125;-62
2021/05/25 08:43:15;;;;;;;3.55;1.50;;;;;;;;;;4990707;28;20109;-62
2021/05/25 08:45:41;;;;;;;5.88;1.67;;;;;;;;;;4989308;28;20506;-61
2021/05/25 08:48:07;;;;;;;4.25;1.45;;;;;;;;;;4989201;28;20030;-63
2021/05/25 08:50:33;;;;;;;2.75;1.25;;;;;;;;;;4987966;28;20041;-62
2021/05/25 08:53:02;;;;;;;3.47;1.50;;;;;;;;;;4989044;28;20018;-62
2021/05/25 08:55:29;;;;;;;9.07;1.70;;;;;;;;;;4989278;28;20050;-61
2021/05/25 08:57:55;;;;;;;4.47;1.48;;;;;;;;;;4989466;28;20045;-62
2021/05/25 09:00:22;;;;;;;2.92;1.48;;;;;;;;;;4989262;28;20040;-62
2021/05/25 09:02:48;;;;;;;3.78;1.60;;;;;;;;;;4989292;28;20023;-61
2021/05/25 09:05:21;;;;;;;2.80;1.38;;;;;;;;;;4989015;28;20476;-62
2021/05/25 09:07:49;;;;;;;2.88;1.42;;;;;;;;;;4989057;28;20520;-61
2021/05/25 09:10:22;;;;;;;4.10;1.50;;;;;;;;;;4989183;28;20015;-61
2021/05/25 09:12:49;;;;;;;4.95;1.30;;;;;;;;;;4989035;28;20088;-60
2021/05/25 09:15:16;;;;;;;2.90;1.30;;;;;;;;;;4989081;28;20022;-60
2021/05/25 09:17:43;;;;;;;3.33;1.40;;;;;;;;;;4990622;28;20380;-62
2021/05/25 09:20:09;;;;;;;3.50;1.50;;;;;;;;;;5008699;28;20029;-62
2021/05/25 09:22:36;;;;;;;3.33;1.52;;;;;;;;;;5008822;28;20026;-61
2021/05/25 09:25:07;;;;;;;4.75;1.40;;;;;;;;;;5040050;28;20029;-62
2021/05/25 09:27:36;;;;;;;2.63;1.20;;;;;;;;;;5008364;28;20030;-62
2021/05/25 09:30:13;;;;;;;2.10;1.17;;;;;;;;;;5008458;28;20018;-62
2021/05/25 09:33:00;;;;;;;5.47;1.50;;;;;;;;;;5008479;28;20030;-61
2021/05/25 09:35:30;;;;;;;3.08;1.20;;;;;;;;;;5008397;28;20059;-61
2021/05/25 09:37:57;;;;;;;2.95;1.20;;;;;;;;;;5008215;28;20034;-62
2021/05/25 09:40:28;;;;;;;3.33;1.40;;;;;;;;;;5008510;28;20060;-62
2021/05/25 09:43:09;;;;;;;2.58;1.20;;;;;;;;;;5008498;28;20054;-63
2021/05/25 09:45:35;;;;;;;2.85;1.27;;;;;;;;;;5008215;28;20402;-61
2021/05/25 09:48:03;;;;;;;2.22;1.20;;;;;;;;;;5010270;28;20074;-61
2021/05/25 09:50:29;;;;;;;2.53;1.33;;;;;;;;;;5011798;28;20022;-61
2021/05/25 09:53:01;;;;;;;5.38;1.40;;;;;;;;;;5011784;28;20067;-62
2021/05/25 09:55:27;;;;;;;5.35;1.48;;;;;;;;;;5011819;28;20320;-62
2021/05/25 09:57:57;;;;;;;2.30;0.98;;;;;;;;;;5011605;28;20026;-61
2021/05/25 10:00:28;;;;;;;2.60;1.27;;;;;;;;;;5011462;28;20060;-61
2021/05/25 10:03:13;;;;;;;4.65;1.42;;;;;;;;;;5011343;28;20467;-61
2021/05/25 10:05:39;;;;;;;2.15;1.00;;;;;;;;;;5011380;28;20022;-62
2021/05/25 10:08:05;;;;;;;3.70;1.25;;;;;;;;;;5011472;28;20026;-61
2021/05/25 10:10:33;;;;;;;5.05;1.48;;;;;;;;;;5011482;28;20025;-61
2021/05/25 10:12:59;;;;;;;3.00;1.27;;;;;;;;;;5011501;28;20479;-61
2021/05/25 10:15:27;;;;;;;3.17;1.33;;;;;;;;;;5011556;28;20030;-61
2021/05/25 10:20:22;;;;;;;2.80;1.30;;;;;;;;;;5011213;28;20030;-61
2021/05/25 10:22:48;;;;;;;2.78;1.30;;;;;;;;;;5011360;28;20398;-60
2021/05/25 10:25:17;;;;;;;4.18;1.30;;;;;;;;;;5042794;28;20109;-61
2021/05/25 10:27:45;;;;;;;2.80;1.10;;;;;;;;;;5011135;28;20119;-62
2021/05/25 10:30:24;;;;;;;2.40;1.25;;;;;;;;;;5011164;28;20540;-61
2021/05/25 10:33:05;;;;;;;2.03;0.90;;;;;;;;;;5011157;28;20030;-60
2021/05/25 10:35:50;;;;;;;2.40;1.00;;;;;;;;;;5011094;28;20094;-60
2021/05/25 10:38:16;;;;;;;2.47;1.00;;;;;;;;;;5010713;28;20053;-62
2021/05/25 10:40:46;;;;;;;1.63;0.90;;;;;;;;;;5010998;28;20386;-62
2021/05/25 10:43:38;;;;;;;2.08;0.80;;;;;;;;;;5010709;28;20026;-63
2021/05/25 10:46:15;;;;;;;3.42;0.98;;;;;;;;;;5012772;28;20080;-63
2021/05/25 10:51:51;;;;;;;4.45;2.05;;;;;;;;;;5011096;28;20029;-63
2021/05/25 10:54:30;;;;;;;47.28;16.70;;;;;;;;;;5042443;28;20045;-63
2021/05/25 10:56:57;;;;;;;26.48;9.68;;;;;;;;;;5010619;28;20114;-62
2021/05/25 10:59:24;;;;;;;24.67;7.50;;;;;;;;;;5010479;28;20034;-61
2021/05/25 11:01:54;;;;;;;17.35;6.82;;;;;;;;;;5010650;28;20097;-63
2021/05/25 11:04:23;;;;;;;17.92;7.00;;;;;;;;;;5010738;28;20029;-62
2021/05/25 11:06:49;;;;;;;18.02;6.25;;;;;;;;;;5010383;28;20487;-63
2021/05/25 11:09:29;;;;;;;19.40;5.75;;;;;;;;;;5010562;28;20021;-61
2021/05/25 11:12:14;;;;;;;17.30;6.05;;;;;;;;;;5042371;28;20026;-62
2021/05/25 11:14:59;;;;;;;16.42;4.53;;;;;;;;;;5010698;28;20026;-62
2021/05/25 11:17:32;;;;;;;12.55;4.78;;;;;;;;;;5010512;28;20451;-62
2021/05/25 11:20:18;;;;;;;11.55;4.20;;;;;;;;;;5010488;28;20113;-63
2021/05/25 11:22:44;;;;;;;15.57;3.95;;;;;;;;;;5010316;28;20018;-66
2021/05/25 11:25:10;;;;;;;18.75;4.35;;;;;;;;;;5010186;28;20026;-63
2021/05/25 11:27:44;;;;;;;20.63;4.22;;;;;;;;;;5010229;28;20524;-63
2021/05/25 11:30:22;;;;;;;14.75;4.32;;;;;;;;;;5010053;28;20029;-62
2021/05/25 11:32:49;;;;;;;23.15;4.32;;;;;;;;;;5010073;28;20022;-61
2021/05/25 11:35:22;;;;;;;19.95;3.72;;;;;;;;;;5010056;28;20386;-61
2021/05/25 11:37:53;;;;;;;13.98;3.75;;;;;;;;;;5009776;28;20026;-63
2021/05/25 11:40:31;;;;;;;13.30;3.50;;;;;;;;;;5010047;28;20022;-62
2021/05/25 11:42:57;;;;;;;11.07;3.17;;;;;;;;;;5010114;28;20030;-63
2021/05/25 11:45:28;;;;;;;12.32;3.25;;;;;;;;;;5010201;28;20095;-61
2021/05/25 11:47:54;;;;;;;11.93;3.03;;;;;;;;;;5009858;28;20036;-62
2021/05/25 11:50:20;;;;;;;15.18;2.88;;;;;;;;;;5009957;28;20110;-61
2021/05/25 11:52:50;;;;;;;9.57;2.92;;;;;;;;;;5009979;28;20037;-62
2021/05/25 11:55:17;;;;;;;8.48;2.60;;;;;;;;;;4997210;28;20044;-62
2021/05/25 11:57:46;;;;;;;10.68;2.60;;;;;;;;;;4989995;28;20058;-60
2021/05/25 12:00:15;;;;;;;10.02;2.15;;;;;;;;;;4990121;28;20010;-61
2021/05/25 12:02:43;;;;;;;12.65;2.45;;;;;;;;;;4988794;28;20065;-62
2021/05/25 12:05:10;;;;;;;9.07;1.95;;;;;;;;;;4989990;28;20018;-61
2021/05/25 12:07:37;;;;;;;7.90;1.83;;;;;;;;;;4990021;28;20030;-61
2021/05/25 12:10:04;;;;;;;9.07;1.77;;;;;;;;;;4989439;28;20590;-62
2021/05/25 12:12:31;;;;;;;7.38;2.13;;;;;;;;;;4990081;28;20105;-61
2021/05/25 12:15:01;;;;;;;7.05;2.03;;;;;;;;;;4990050;28;20026;-61
2021/05/25 12:17:29;;;;;;;6.88;1.92;;;;;;;;;;4989911;28;20022;-61
2021/05/25 12:19:58;;;;;;;10.10;1.73;;;;;;;;;;5009350;28;20129;-61
2021/05/25 12:22:32;;;;;;;6.07;1.50;;;;;;;;;;5009284;28;20017;-61
2021/05/25 12:25:13;;;;;;;4.72;1.67;;;;;;;;;;5009266;28;20026;-61
2021/05/25 12:27:40;;;;;;;4.82;1.50;;;;;;;;;;5009370;28;20486;-61
2021/05/25 12:30:08;;;;;;;4.13;1.25;;;;;;;;;;5009695;28;20018;-61
2021/05/25 12:32:34;;;;;;;4.45;1.60;;;;;;;;;;5009393;28;20029;-60
2021/05/25 12:35:00;;;;;;;4.05;1.63;;;;;;;;;;5041069;28;20030;-61
2021/05/25 12:37:26;;;;;;;4.15;1.55;;;;;;;;;;5040739;28;20038;-61
2021/05/25 12:40:03;;;;;;;4.13;1.25;;;;;;;;;;5009036;28;20053;-61
2021/05/25 12:42:34;;;;;;;5.68;1.30;;;;;;;;;;5009118;28;20026;-61
2021/05/25 12:45:07;;;;;;;3.17;1.20;;;;;;;;;;5009023;28;20018;-61
2021/05/25 12:47:49;;;;;;;3.42;1.05;;;;;;;;;;5008797;28;20107;-61
2021/05/25 12:50:15;;;;;;;3.65;1.17;;;;;;;;;;5008881;28;20033;-61
2021/05/25 12:52:42;;;;;;;3.03;1.00;;;;;;;;;;5009198;28;20064;-61
2021/05/25 12:55:12;;;;;;;2.90;0.88;;;;;;;;;;5008915;28;20049;-61
2021/05/25 12:57:41;;;;;;;3.78;1.10;;;;;;;;;;5009123;28;20105;-61
2021/05/25 13:00:08;;;;;;;3.33;0.90;;;;;;;;;;5008976;28;20033;-62
2021/05/25 13:02:38;;;;;;;4.53;1.00;;;;;;;;;;5008739;28;20033;-61
2021/05/25 13:05:08;;;;;;;1.92;0.90;;;;;;;;;;5008653;28;20054;-61
2021/05/25 13:07:58;;;;;;;3.40;0.80;;;;;;;;;;5007437;28;20371;-62
2021/05/25 13:10:26;;;;;;;5.00;1.15;;;;;;;;;;5008716;28;20018;-61
2021/05/25 13:12:53;;;;;;;4.63;1.02;;;;;;;;;;5008727;28;20030;-61
2021/05/25 13:15:19;;;;;;;4.35;0.93;;;;;;;;;;5008749;28;20114;-61
2021/05/25 13:17:54;;;;;;;1.60;0.70;;;;;;;;;;5040113;28;20473;-61
2021/05/25 13:20:21;;;;;;;3.45;0.88;;;;;;;;;;5008636;28;20105;-61
2021/05/25 13:22:47;;;;;;;4.45;1.00;;;;;;;;;;5010201;28;20022;-61
2021/05/25 13:25:15;;;;;;;2.15;0.85;;;;;;;;;;5011967;28;20119;-61
2021/05/25 13:27:49;;;;;;;1.10;0.50;;;;;;;;;;5012051;28;20482;-61
2021/05/25 13:30:16;;;;;;;1.35;0.68;;;;;;;;;;5012108;28;20030;-62
2021/05/25 13:32:42;;;;;;;2.08;0.82;;;;;;;;;;5012014;28;20022;-61
2021/05/25 13:35:09;;;;;;;1.50;0.70;;;;;;;;;;5011918;28;20071;-61
2021/05/25 13:37:39;;;;;;;1.50;0.70;;;;;;;;;;5011573;28;20048;-61
2021/05/25 13:40:09;;;;;;;2.47;0.80;;;;;;;;;;5011969;28;20050;-61
2021/05/25 13:42:35;;;;;;;2.00;0.70;;;;;;;;;;5012072;28;20063;-62
2021/05/25 13:45:01;;;;;;;2.00;0.60;;;;;;;;;;5011878;28;20032;-62
2021/05/25 13:47:28;;;;;;;3.60;1.10;;;;;;;;;;5011627;28;20107;-61
2021/05/25 13:49:54;;;;;;;1.75;0.68;;;;;;;;;;5011513;28;20060;-61
2021/05/25 13:52:20;;;;;;;3.00;1.00;;;;;;;;;;5011820;28;20032;-60
2021/05/25 13:54:47;;;;;;;1.88;0.77;;;;;;;;;;5011630;28;20580;-60
2021/05/25 13:57:32;;;;;;;2.75;0.77;;;;;;;;;;5011430;28;20037;-60
2021/05/25 14:02:27;;;;;;;3.40;0.70;;;;;;;;;;5011728;28;20364;-61
2021/05/25 14:04:53;;;;;;;2.83;0.80;;;;;;;;;;5011429;28;20026;-61
2021/05/25 14:07:19;;;;;;;2.55;0.70;;;;;;;;;;5011468;28;20172;-60
2021/05/25 14:09:45;;;;;;;1.48;0.65;;;;;;;;;;5011604;28;20021;-61
2021/05/25 14:12:12;;;;;;;3.33;0.60;;;;;;;;;;5011475;28;20026;-61
2021/05/25 14:14:38;;;;;;;1.52;0.50;;;;;;;;;;5043282;28;20364;-61
2021/05/25 14:17:05;;;;;;;1.85;0.60;;;;;;;;;;5011037;28;20689;-61
2021/05/25 14:19:31;;;;;;;1.58;0.70;;;;;;;;;;5006286;28;20037;-61
2021/05/25 14:21:57;;;;;;;2.60;0.77;;;;;;;;;;5009890;28;20030;-61
2021/05/25 14:24:23;;;;;;;1.70;0.52;;;;;;;;;;5009326;28;20030;-61
2021/05/25 14:26:49;;;;;;;1.45;0.50;;;;;;;;;;5009582;28;20034;-62
2021/05/25 14:29:15;;;;;;;3.78;0.80;;;;;;;;;;5009787;28;20020;-61
2021/05/25 14:31:45;;;;;;;3.97;0.82;;;;;;;;;;5010416;28;20487;-61
2021/05/25 14:34:11;;;;;;;4.88;0.95;;;;;;;;;;5009754;28;20022;-60
2021/05/25 14:36:37;;;;;;;7.18;0.70;;;;;;;;;;5009595;28;20022;-61
2021/05/25 14:39:04;;;;;;;11.70;1.00;;;;;;;;;;5009378;28;20042;-60
2021/05/25 14:41:30;;;;;;;4.85;1.02;;;;;;;;;;5009286;28;20022;-60
2021/05/25 14:43:56;;;;;;;2.35;0.70;;;;;;;;;;5009228;28;20466;-60
2021/05/25 14:46:22;;;;;;;1.50;0.60;;;;;;;;;;5018035;28;20510;-61
2021/05/25 14:48:48;;;;;;;3.60;0.63;;;;;;;;;;5029240;28;20021;-60
2021/05/25 14:51:15;;;;;;;4.18;0.63;;;;;;;;;;5002663;28;20022;-60
2021/05/25 14:53:44;;;;;;;1.58;0.70;;;;;;;;;;4991019;28;20036;-60
2021/05/25 14:56:23;;;;;;;2.25;0.85;;;;;;;;;;4997557;28;20014;-62
2021/05/25 14:58:54;;;;;;;1.83;0.60;;;;;;;;;;5010599;28;20021;-60